createdAt,value
2019-06-20T00:01:09.940Z,14.55
2019-06-20T00:03:42.621Z,13.53
2019-06-20T00:06:15.611Z,14.10
2019-06-20T00:08:48.203Z,12.73
2019-06-20T00:11:20.981Z,12.45
2019-06-20T00:13:53.850Z,13.30
2019-06-20T00:16:26.532Z,13.50
2019-06-20T00:18:59.315Z,13.72
2019-06-20T00:21:31.831Z,12.98
2019-06-20T00:24:04.246Z,12.98
2019-06-20T00:26:36.945Z,14.50
2019-06-20T00:29:09.554Z,12.98
2019-06-20T00:31:42.410Z,13.68
2019-06-20T00:34:15.291Z,13.45
2019-06-20T00:36:51.155Z,14.25
2019-06-20T00:39:22.456Z,15.32
2019-06-20T00:41:55.181Z,15.83
2019-06-20T00:44:27.907Z,13.20
2019-06-20T00:47:00.647Z,15.43
2019-06-20T00:49:33.424Z,13.83
2019-06-20T00:52:06.401Z,14.15
2019-06-20T00:54:39.470Z,14.60
2019-06-20T00:57:11.862Z,14.65
2019-06-20T00:59:44.836Z,15.45
2019-06-20T01:02:17.457Z,15.68
2019-06-20T01:04:50.105Z,15.23
2019-06-20T01:07:22.755Z,14.45
2019-06-20T01:09:55.701Z,13.60
2019-06-20T01:12:28.524Z,15.48
2019-06-20T01:15:01.349Z,14.47
2019-06-20T01:17:34.192Z,14.85
2019-06-20T01:20:12.211Z,15.70
2019-06-20T01:22:45.217Z,15.25
2019-06-20T01:25:20.725Z,15.45
2019-06-20T01:27:53.201Z,14.55
2019-06-20T01:30:26.021Z,13.83
2019-06-20T01:32:58.651Z,16.87
2019-06-20T01:35:31.179Z,16.60
2019-06-20T01:38:04.226Z,17.20
2019-06-20T01:40:36.826Z,15.00
2019-06-20T01:43:09.776Z,15.25
2019-06-20T01:45:42.420Z,15.15
2019-06-20T01:48:15.045Z,15.35
2019-06-20T01:50:47.671Z,15.45
2019-06-20T01:53:20.170Z,15.03
2019-06-20T01:55:52.714Z,15.20
2019-06-20T01:58:25.236Z,15.88
2019-06-20T02:00:58.802Z,15.30
2019-06-20T02:03:32.040Z,14.95
2019-06-20T02:06:05.234Z,15.83
2019-06-20T02:08:37.696Z,16.10
2019-06-20T02:11:10.336Z,16.93
2019-06-20T02:13:44.101Z,15.32
2019-06-20T02:16:16.716Z,16.12
2019-06-20T02:18:49.366Z,15.95
2019-06-20T02:21:22.099Z,15.05
2019-06-20T02:23:54.735Z,17.02
2019-06-20T02:26:27.421Z,15.60
2019-06-20T02:28:59.976Z,16.30
2019-06-20T02:31:32.702Z,17.30
2019-06-20T02:34:05.392Z,16.57
2019-06-20T02:36:37.956Z,16.37
2019-06-20T02:39:10.477Z,16.35
2019-06-20T02:41:43.169Z,15.48
2019-06-20T02:44:29.029Z,16.10
2019-06-20T02:46:51.177Z,13.50
2019-06-20T02:49:23.906Z,16.93
2019-06-20T02:51:56.709Z,15.60
2019-06-20T02:54:29.296Z,13.30
2019-06-20T02:57:02.070Z,15.03
2019-06-20T02:59:34.958Z,13.98
2019-06-20T03:02:07.707Z,13.80
2019-06-20T03:04:40.548Z,15.05
2019-06-20T03:07:13.531Z,14.90
2019-06-20T03:09:46.344Z,15.35
2019-06-20T03:12:19.247Z,14.53
2019-06-20T03:14:51.984Z,15.10
2019-06-20T03:17:24.686Z,14.33
2019-06-20T03:19:57.156Z,14.65
2019-06-20T03:22:29.646Z,15.05
2019-06-20T03:25:02.541Z,14.40
2019-06-20T03:27:35.468Z,13.13
2019-06-20T03:30:08.882Z,12.58
2019-06-20T03:32:41.897Z,13.32
2019-06-20T03:35:14.885Z,15.03
2019-06-20T03:37:50.197Z,13.38
2019-06-20T03:40:22.370Z,13.38
2019-06-20T03:42:55.069Z,13.45
2019-06-20T03:45:27.922Z,13.38
2019-06-20T03:48:00.736Z,14.30
2019-06-20T03:50:33.498Z,14.03
2019-06-20T03:53:06.400Z,14.40
2019-06-20T03:55:39.145Z,14.10
2019-06-20T03:58:11.788Z,14.87
2019-06-20T04:00:44.305Z,14.38
2019-06-20T04:03:16.936Z,14.38
2019-06-20T04:05:49.620Z,14.80
2019-06-20T04:08:22.251Z,14.63
2019-06-20T04:10:54.774Z,13.70
2019-06-20T04:13:27.365Z,13.62
2019-06-20T04:16:00.065Z,14.00
2019-06-20T04:18:32.661Z,15.30
2019-06-20T04:21:05.626Z,14.18
2019-06-20T04:23:38.170Z,13.90
2019-06-20T04:26:10.717Z,13.75
2019-06-20T04:28:43.384Z,11.97
2019-06-20T04:31:15.885Z,12.05
2019-06-20T04:33:48.535Z,12.10
2019-06-20T04:36:21.339Z,12.07
2019-06-20T04:38:53.861Z,11.25
2019-06-20T04:41:26.507Z,11.97
2019-06-20T04:43:58.966Z,11.68
2019-06-20T04:46:46.609Z,11.65
2019-06-20T04:49:19.923Z,11.25
2019-06-20T04:51:52.965Z,10.88
2019-06-20T04:54:25.605Z,11.10
2019-06-20T04:56:58.136Z,9.90
2019-06-20T04:59:30.809Z,9.35
2019-06-20T05:02:03.439Z,9.45
2019-06-20T05:04:35.985Z,8.55
2019-06-20T05:07:13.161Z,9.23
2019-06-20T05:09:45.910Z,8.53
2019-06-20T05:12:18.639Z,7.80
2019-06-20T05:14:54.265Z,7.28
2019-06-20T05:17:26.836Z,7.00
2019-06-20T05:19:59.521Z,7.47
2019-06-20T05:22:32.270Z,6.72
2019-06-20T05:25:05.781Z,7.17
2019-06-20T05:27:38.456Z,6.97
2019-06-20T05:30:15.002Z,6.55
2019-06-20T05:32:47.832Z,5.97
2019-06-20T05:35:20.713Z,6.03
2019-06-20T05:37:53.503Z,5.67
2019-06-20T05:40:26.606Z,5.87
2019-06-20T05:42:59.261Z,5.92
2019-06-20T05:45:32.156Z,5.42
2019-06-20T05:48:05.407Z,6.22
2019-06-20T05:50:37.913Z,5.70
2019-06-20T05:53:10.744Z,6.22
2019-06-20T05:55:43.483Z,5.58
2019-06-20T05:58:16.376Z,5.60
2019-06-20T06:00:48.873Z,5.30
2019-06-20T06:03:21.676Z,5.80
2019-06-20T06:05:54.686Z,5.42
2019-06-20T06:08:27.765Z,5.83
2019-06-20T06:11:00.375Z,6.05
2019-06-20T06:13:33.000Z,5.47
2019-06-20T06:16:05.741Z,5.20
2019-06-20T06:18:38.480Z,5.33
2019-06-20T06:21:11.115Z,5.47
2019-06-20T06:23:44.023Z,5.60
2019-06-20T06:26:18.296Z,6.65
2019-06-20T06:28:51.231Z,5.83
2019-06-20T06:31:23.741Z,6.08
2019-06-20T06:33:57.328Z,5.30
2019-06-20T06:36:29.840Z,5.53
2019-06-20T06:39:02.600Z,6.17
2019-06-20T06:41:36.530Z,5.65
2019-06-20T06:44:09.405Z,6.08
2019-06-20T06:46:47.223Z,5.47
2019-06-20T06:49:16.180Z,5.33
2019-06-20T06:51:49.186Z,5.47
2019-06-20T06:54:21.871Z,5.12
2019-06-20T06:56:54.651Z,5.65
2019-06-20T06:59:27.429Z,5.53
2019-06-20T07:02:00.313Z,6.22
2019-06-20T07:04:32.881Z,6.10
2019-06-20T07:07:05.725Z,6.03
2019-06-20T07:09:38.335Z,5.83
2019-06-20T07:12:11.151Z,5.92
2019-06-20T07:14:43.706Z,5.35
2019-06-20T07:17:16.526Z,6.03
2019-06-20T07:19:49.487Z,6.10
2019-06-20T07:22:22.321Z,4.90
2019-06-20T07:24:55.256Z,5.80
2019-06-20T07:27:28.334Z,6.30
2019-06-20T07:30:00.862Z,5.87
2019-06-20T07:32:33.681Z,5.50
2019-06-20T07:35:08.180Z,5.47
2019-06-20T07:37:40.855Z,4.92
2019-06-20T07:40:14.885Z,5.08
2019-06-20T07:42:47.790Z,5.40
2019-06-20T07:45:27.272Z,5.40
2019-06-20T07:47:59.387Z,5.55
2019-06-20T07:50:32.481Z,5.67
2019-06-20T07:53:05.336Z,5.60
2019-06-20T07:55:38.177Z,4.35
2019-06-20T07:58:10.905Z,5.70
2019-06-20T08:00:43.665Z,5.25
2019-06-20T08:03:16.272Z,4.95
2019-06-20T08:05:49.281Z,4.90
2019-06-20T08:08:23.176Z,5.58
2019-06-20T08:10:56.120Z,4.42
2019-06-20T08:13:28.896Z,5.55
2019-06-20T08:16:03.915Z,4.60
2019-06-20T08:18:37.408Z,4.50
2019-06-20T08:21:10.281Z,4.55
2019-06-20T08:23:42.905Z,4.75
2019-06-20T08:26:15.781Z,5.12
2019-06-20T08:28:48.210Z,4.35
2019-06-20T08:31:21.041Z,4.28
2019-06-20T08:33:53.776Z,4.62
2019-06-20T08:36:26.402Z,4.42
2019-06-20T08:39:00.263Z,4.90
2019-06-20T08:41:33.895Z,4.83
2019-06-20T08:44:08.463Z,4.50
2019-06-20T08:46:41.318Z,4.28
2019-06-20T08:49:14.170Z,4.37
2019-06-20T08:51:46.971Z,4.50
2019-06-20T08:54:19.747Z,4.22
2019-06-20T08:56:52.530Z,3.95
2019-06-20T08:59:25.296Z,3.90
2019-06-20T09:01:59.989Z,3.80
2019-06-20T09:04:32.066Z,3.80
2019-06-20T09:09:37.631Z,4.00
2019-06-20T09:12:10.381Z,4.08
2019-06-20T09:14:43.251Z,4.20
2019-06-20T09:17:16.203Z,3.62
2019-06-20T09:19:48.872Z,3.83
2019-06-20T09:22:22.431Z,3.75
2019-06-20T09:24:56.829Z,4.10
2019-06-20T09:27:29.747Z,3.80
2019-06-20T09:30:03.515Z,3.75
2019-06-20T09:32:36.631Z,3.77
2019-06-20T09:35:12.296Z,4.40
2019-06-20T09:37:45.093Z,3.77
2019-06-20T09:40:21.780Z,3.35
2019-06-20T09:42:54.816Z,4.08
2019-06-20T09:45:27.873Z,4.40
2019-06-20T09:48:00.782Z,4.25
2019-06-20T09:50:33.769Z,4.62
2019-06-20T09:53:06.408Z,3.98
2019-06-20T09:55:39.685Z,4.08
2019-06-20T09:58:12.784Z,4.60
2019-06-20T10:00:47.604Z,3.90
2019-06-20T10:03:20.072Z,4.10
2019-06-20T10:05:52.730Z,4.55
2019-06-20T10:08:25.466Z,4.67
2019-06-20T10:10:58.525Z,4.62
2019-06-20T10:13:32.741Z,4.50
2019-06-20T10:16:06.651Z,4.97
2019-06-20T10:18:39.302Z,4.37
2019-06-20T10:21:12.222Z,4.80
2019-06-20T10:23:46.187Z,4.80
2019-06-20T10:26:19.542Z,4.35
2019-06-20T10:28:53.105Z,4.65
2019-06-20T10:31:25.760Z,4.58
2019-06-20T10:33:58.421Z,4.55
2019-06-20T10:36:31.182Z,4.40
2019-06-20T10:39:04.620Z,4.90
2019-06-20T10:41:37.246Z,4.30
2019-06-20T10:44:09.940Z,5.15
2019-06-20T10:46:42.829Z,4.70
2019-06-20T10:49:17.257Z,4.45
2019-06-20T10:51:49.790Z,4.08
2019-06-20T10:54:22.707Z,4.50
2019-06-20T10:56:55.555Z,4.78
2019-06-20T10:59:28.256Z,4.40
2019-06-20T11:02:00.805Z,4.55
2019-06-20T11:04:33.696Z,5.08
2019-06-20T11:07:06.310Z,4.58
2019-06-20T11:09:41.180Z,4.17
2019-06-20T11:12:14.219Z,3.95
2019-06-20T11:14:46.870Z,4.00
2019-06-20T11:17:19.505Z,4.08
2019-06-20T11:19:52.432Z,3.72
2019-06-20T11:22:24.988Z,4.08
2019-06-20T11:24:57.851Z,3.70
2019-06-20T11:27:31.101Z,4.87
2019-06-20T11:30:05.052Z,4.37
2019-06-20T11:32:38.234Z,4.70
2019-06-20T11:35:12.510Z,5.03
2019-06-20T11:37:45.347Z,4.47
2019-06-20T11:40:18.242Z,5.03
2019-06-20T11:42:50.955Z,4.70
2019-06-20T11:45:24.891Z,4.80
2019-06-20T11:47:57.635Z,4.53
2019-06-20T11:50:30.921Z,4.70
2019-06-20T11:53:03.565Z,4.65
2019-06-20T11:55:36.181Z,4.05
2019-06-20T11:58:09.151Z,5.20
2019-06-20T12:00:41.731Z,5.55
2019-06-20T12:03:14.255Z,5.97
2019-06-20T12:05:47.365Z,5.65
2019-06-20T12:08:20.139Z,5.20
2019-06-20T12:10:52.936Z,5.37
2019-06-20T12:13:25.466Z,5.40
2019-06-20T12:15:58.241Z,4.78
2019-06-20T12:18:31.026Z,5.35
2019-06-20T12:21:03.857Z,5.78
2019-06-20T12:23:36.182Z,5.70
2019-06-20T12:26:09.376Z,5.30
2019-06-20T12:28:42.316Z,5.78
2019-06-20T12:31:19.528Z,6.42
2019-06-20T12:33:49.880Z,5.83
2019-06-20T12:36:22.486Z,5.83
2019-06-20T12:38:55.410Z,5.85
2019-06-20T12:41:28.229Z,5.92
2019-06-20T12:44:01.040Z,6.00
2019-06-20T12:46:33.650Z,5.40
2019-06-20T12:49:06.383Z,5.55
2019-06-20T12:51:40.402Z,6.00
2019-06-20T12:54:13.622Z,6.22
2019-06-20T12:56:46.555Z,5.83
2019-06-20T12:59:19.360Z,5.72
2019-06-20T13:01:52.312Z,6.10
2019-06-20T13:04:24.865Z,6.08
2019-06-20T13:06:57.711Z,5.92
2019-06-20T13:09:30.455Z,5.75
2019-06-20T13:12:03.262Z,5.95
2019-06-20T13:14:36.116Z,5.67
2019-06-20T13:17:08.565Z,5.42
2019-06-20T13:19:41.991Z,5.35
2019-06-20T13:22:15.390Z,5.30
2019-06-20T13:24:47.805Z,5.37
2019-06-20T13:27:20.345Z,5.55
2019-06-20T13:29:53.311Z,5.03
2019-06-20T13:32:26.211Z,5.28
2019-06-20T13:34:59.152Z,5.72
2019-06-20T13:37:32.113Z,4.97
2019-06-20T13:40:07.966Z,5.00
2019-06-20T13:42:43.703Z,4.42
2019-06-20T13:45:25.640Z,4.37
2019-06-20T13:47:58.455Z,4.62
2019-06-20T13:50:31.451Z,4.95
2019-06-20T13:53:04.560Z,4.92
2019-06-20T13:55:37.336Z,5.15
2019-06-20T13:58:10.235Z,5.10
2019-06-20T14:00:45.372Z,4.65
2019-06-20T14:03:17.678Z,4.72
2019-06-20T14:05:51.731Z,4.45
2019-06-20T14:08:25.041Z,5.05
2019-06-20T14:10:57.917Z,4.97
2019-06-20T14:13:30.523Z,4.08
2019-06-20T14:16:03.253Z,4.85
2019-06-20T14:18:36.094Z,5.03
2019-06-20T14:21:10.348Z,5.25
2019-06-20T14:23:44.711Z,4.87
2019-06-20T14:26:17.296Z,4.78
2019-06-20T14:28:51.082Z,4.35
2019-06-20T14:31:23.852Z,4.70
2019-06-20T14:33:56.400Z,4.42
2019-06-20T14:36:29.370Z,4.55
2019-06-20T14:39:02.201Z,4.25
2019-06-20T14:41:36.606Z,4.30
2019-06-20T14:44:09.450Z,4.40
2019-06-20T14:46:42.175Z,4.53
2019-06-20T14:49:15.024Z,4.10
2019-06-20T14:51:48.488Z,5.03
2019-06-20T14:54:21.386Z,5.10
2019-06-20T14:56:54.115Z,6.33
2019-06-20T14:59:26.835Z,7.80
2019-06-20T15:01:59.531Z,6.05
2019-06-20T15:04:32.407Z,5.75
2019-06-20T15:07:05.811Z,6.42
2019-06-20T15:09:38.518Z,6.75
2019-06-20T15:12:11.176Z,6.25
2019-06-20T15:14:45.804Z,6.47
2019-06-20T15:17:18.732Z,6.15
2019-06-20T15:19:51.467Z,6.53
2019-06-20T15:22:24.202Z,6.72
2019-06-20T15:24:57.224Z,7.87
2019-06-20T15:27:31.134Z,6.85
2019-06-20T15:30:05.575Z,6.85
2019-06-20T15:32:53.049Z,6.25
2019-06-20T15:35:14.012Z,6.37
2019-06-20T15:37:48.372Z,6.58
2019-06-20T15:40:21.251Z,6.60
2019-06-20T15:42:55.402Z,5.62
2019-06-20T15:45:28.770Z,7.58
2019-06-20T15:48:02.166Z,10.30
2019-06-20T15:50:34.845Z,5.90
2019-06-20T15:53:07.670Z,5.45
2019-06-20T15:55:40.640Z,4.60
2019-06-20T15:58:13.530Z,4.95
2019-06-20T16:00:46.430Z,6.05
2019-06-20T16:03:19.725Z,10.15
2019-06-20T16:05:52.713Z,13.13
2019-06-20T16:08:25.717Z,6.17
2019-06-20T16:10:58.515Z,6.55
2019-06-20T16:13:31.354Z,6.20
2019-06-20T16:16:04.401Z,7.37
2019-06-20T16:18:37.113Z,7.80
2019-06-20T16:21:09.572Z,6.97
2019-06-20T16:23:42.391Z,5.85
2019-06-20T16:26:14.995Z,5.37
2019-06-20T16:28:47.807Z,6.37
2019-06-20T16:31:26.685Z,8.08
2019-06-20T16:33:55.097Z,8.30
2019-06-20T16:36:27.777Z,6.60
2019-06-20T16:39:00.412Z,5.85
2019-06-20T16:41:34.685Z,8.53
2019-06-20T16:44:07.866Z,6.62
2019-06-20T16:46:40.961Z,10.35
2019-06-20T16:49:13.920Z,16.37
2019-06-20T16:51:46.905Z,18.37
2019-06-20T16:54:19.805Z,11.88
2019-06-20T16:56:55.631Z,7.92
2019-06-20T16:59:28.957Z,4.97
2019-06-20T17:02:01.691Z,5.10
2019-06-20T17:04:34.625Z,8.70
2019-06-20T17:07:07.501Z,5.40
2019-06-20T17:09:40.281Z,5.25
2019-06-20T17:12:13.432Z,5.60
2019-06-20T17:14:46.481Z,4.90
2019-06-20T17:17:19.331Z,4.97
2019-06-20T17:19:52.289Z,4.65
2019-06-20T17:22:25.459Z,4.78
2019-06-20T17:24:58.548Z,6.08
2019-06-20T17:27:31.671Z,11.20
2019-06-20T17:30:12.920Z,15.93
2019-06-20T17:32:45.800Z,6.20
2019-06-20T17:35:20.476Z,8.03
2019-06-20T17:37:53.345Z,8.45
2019-06-20T17:40:26.261Z,6.92
2019-06-20T17:42:59.663Z,6.28
2019-06-20T17:45:32.820Z,4.37
2019-06-20T17:48:05.943Z,7.92
2019-06-20T17:50:38.975Z,4.78
2019-06-20T17:53:11.836Z,5.62
2019-06-20T17:55:45.055Z,4.58
2019-06-20T17:58:18.088Z,3.67
2019-06-20T18:00:50.906Z,4.40
2019-06-20T18:03:23.775Z,3.40
2019-06-20T18:05:56.845Z,3.67
2019-06-20T18:08:29.777Z,5.12
2019-06-20T18:11:02.791Z,5.58
2019-06-20T18:13:35.821Z,5.05
2019-06-20T18:16:24.074Z,4.70
2019-06-20T18:18:43.505Z,5.42
2019-06-20T18:21:16.560Z,4.28
2019-06-20T18:23:49.238Z,4.08
2019-06-20T18:26:22.059Z,2.90
2019-06-20T18:28:54.962Z,2.80
2019-06-20T18:31:28.111Z,3.10
2019-06-20T18:34:00.927Z,5.10
2019-06-20T18:36:33.855Z,6.03
2019-06-20T18:39:09.050Z,3.77
2019-06-20T18:41:41.651Z,4.12
2019-06-20T18:44:14.532Z,4.55
2019-06-20T18:46:47.291Z,5.03
2019-06-20T18:49:20.006Z,5.08
2019-06-20T18:51:52.757Z,5.17
2019-06-20T18:54:25.638Z,5.53
2019-06-20T18:56:58.546Z,5.45
2019-06-20T18:59:32.780Z,5.60
2019-06-20T19:02:06.863Z,5.58
2019-06-20T19:04:47.739Z,7.30
2019-06-20T19:07:14.342Z,5.60
2019-06-20T19:09:47.236Z,4.65
2019-06-20T19:12:20.487Z,5.10
2019-06-20T19:14:53.436Z,4.70
2019-06-20T19:17:25.894Z,4.53
2019-06-20T19:19:59.047Z,5.50
2019-06-20T19:22:32.026Z,5.62
2019-06-20T19:25:07.802Z,5.75
2019-06-20T19:27:46.101Z,5.85
2019-06-20T19:30:17.816Z,5.47
2019-06-20T19:32:50.521Z,5.50
2019-06-20T19:35:23.331Z,5.78
2019-06-20T19:37:56.125Z,20.70
2019-06-20T19:40:33.457Z,50.03
2019-06-20T19:43:06.655Z,36.03
2019-06-20T19:45:39.265Z,16.73
2019-06-20T19:48:12.776Z,7.28
2019-06-20T19:50:47.216Z,6.90
2019-06-20T19:53:20.167Z,6.95
2019-06-20T19:55:53.305Z,7.50
2019-06-20T19:58:26.394Z,8.85
2019-06-20T20:00:59.491Z,31.12
2019-06-20T20:03:32.349Z,24.72
2019-06-20T20:06:05.065Z,13.35
2019-06-20T20:08:37.887Z,11.15
2019-06-20T20:11:10.618Z,10.28
2019-06-20T20:13:43.593Z,10.90
2019-06-20T20:16:16.329Z,12.30
2019-06-20T20:18:49.057Z,12.43
2019-06-20T20:21:22.022Z,11.75
2019-06-20T20:23:55.118Z,9.85
2019-06-20T20:26:28.011Z,11.78
2019-06-20T20:29:00.866Z,7.78
2019-06-20T20:31:33.680Z,8.23
2019-06-20T20:34:06.685Z,9.38
2019-06-20T20:36:39.517Z,8.73
2019-06-20T20:39:12.230Z,8.23
2019-06-20T20:41:45.566Z,8.35
2019-06-20T20:44:18.546Z,8.18
2019-06-20T20:46:51.582Z,8.78
2019-06-20T20:49:24.468Z,16.00
2019-06-20T20:51:58.318Z,61.53
2019-06-20T20:54:31.060Z,45.03
2019-06-20T20:57:03.911Z,21.70
2019-06-20T20:59:36.776Z,14.53
2019-06-20T21:02:09.811Z,11.80
2019-06-20T21:04:42.286Z,15.18
2019-06-20T21:07:15.136Z,16.65
2019-06-20T21:09:48.140Z,14.98
2019-06-20T21:12:20.932Z,11.22
2019-06-20T21:14:53.846Z,11.12
2019-06-20T21:17:26.977Z,12.43
2019-06-20T21:20:00.095Z,25.48
2019-06-20T21:22:32.780Z,14.30
2019-06-20T21:25:07.065Z,12.50
2019-06-20T21:27:39.885Z,25.77
2019-06-20T21:30:14.341Z,19.15
2019-06-20T21:32:47.507Z,12.75
2019-06-20T21:35:20.261Z,16.55
2019-06-20T21:37:53.005Z,17.87
2019-06-20T21:40:25.890Z,16.07
2019-06-20T21:42:59.135Z,14.70
2019-06-20T21:45:32.101Z,14.75
2019-06-20T21:48:04.980Z,16.23
2019-06-20T21:50:39.024Z,13.32
2019-06-20T21:53:11.805Z,13.60
2019-06-20T21:55:45.007Z,13.20
2019-06-20T21:58:17.956Z,12.45
2019-06-20T22:00:54.060Z,12.93
2019-06-20T22:03:28.698Z,13.93
2019-06-20T22:06:02.729Z,12.30
2019-06-20T22:08:35.735Z,10.88
2019-06-20T22:11:08.300Z,10.88
2019-06-20T22:13:42.591Z,10.80
2019-06-20T22:16:15.275Z,9.50
2019-06-20T22:18:48.256Z,9.20
2019-06-20T22:21:21.066Z,8.70
2019-06-20T22:23:54.107Z,11.20
2019-06-20T22:26:26.780Z,10.08
2019-06-20T22:28:59.918Z,10.15
2019-06-20T22:31:32.650Z,9.18
2019-06-20T22:34:05.539Z,10.03
2019-06-20T22:36:40.620Z,10.45
2019-06-20T22:39:13.666Z,9.85
2019-06-20T22:41:46.468Z,9.70
2019-06-20T22:44:19.505Z,9.30
2019-06-20T22:46:52.390Z,9.75
2019-06-20T22:49:26.278Z,9.30
2019-06-20T22:51:59.280Z,10.00
2019-06-20T22:54:31.982Z,9.23
2019-06-20T22:57:04.853Z,8.60
2019-06-20T22:59:37.797Z,8.23
2019-06-20T23:02:10.672Z,8.70
2019-06-20T23:04:43.778Z,8.63
2019-06-20T23:07:17.021Z,8.38
2019-06-20T23:09:50.027Z,7.97
2019-06-20T23:12:22.736Z,8.65
2019-06-20T23:14:55.678Z,8.60
2019-06-20T23:17:28.488Z,8.65
2019-06-20T23:20:01.276Z,8.15
2019-06-20T23:22:34.201Z,9.68
2019-06-20T23:25:10.361Z,10.18
2019-06-20T23:27:43.111Z,9.25
2019-06-20T23:30:17.671Z,8.88
2019-06-20T23:32:50.623Z,16.48
2019-06-20T23:35:23.212Z,15.72
2019-06-20T23:37:55.850Z,14.10
2019-06-20T23:40:28.850Z,12.78
2019-06-20T23:43:01.583Z,13.62
2019-06-20T23:45:34.258Z,12.85
2019-06-20T23:48:06.891Z,12.80
2019-06-20T23:50:39.513Z,10.53
2019-06-20T23:53:16.661Z,12.07
2019-06-20T23:55:50.427Z,11.30
2019-06-20T23:58:25.551Z,12.50
